sensor_id;sensor_type;location;lat;lon;timestamp;pressure;altitude;pressure_sealevel;temperature;humidity
21956;BME280;11142;49.930;8.606;2023-04-08T00:01:11;100449.56;;;8.39;100.00
21956;BME280;11142;49.930;8.606;2023-04-08T00:03:39;100433.50;;;8.50;100.00
21956;BME280;11142;49.930;8.606;2023-04-08T00:06:08;100440.88;;;8.58;100.00
21956;BME280;11142;49.930;8.606;2023-04-08T00:08:36;100435.28;;;8.49;100.00
21956;BME280;11142;49.930;8.606;2023-04-08T00:11:04;100439.97;;;8.76;100.00
21956;BME280;11142;49.930;8.606;2023-04-08T00:13:32;100439.06;;;8.77;100.00
21956;BME280;11142;49.930;8.606;2023-04-08T00:16:00;100448.03;;;8.70;100.00
21956;BME280;11142;49.930;8.606;2023-04-08T00:18:29;100448.97;;;8.69;100.00
21956;BME280;11142;49.930;8.606;2023-04-08T00:20:57;100447.13;;;8.88;100.00
21956;BME280;11142;49.930;8.606;2023-04-08T00:23:26;100442.50;;;9.10;100.00
21956;BME280;11142;49.930;8.606;2023-04-08T00:25:55;100449.19;;;9.14;100.00
21956;BME280;11142;49.930;8.606;2023-04-08T00:28:24;100451.09;;;9.11;100.00
21956;BME280;11142;49.930;8.606;2023-04-08T00:30:52;100452.44;;;8.85;100.00
21956;BME280;11142;49.930;8.606;2023-04-08T00:33:21;100453.69;;;8.78;100.00
21956;BME280;11142;49.930;8.606;2023-04-08T00:35:52;100456.41;;;8.58;100.00
21956;BME280;11142;49.930;8.606;2023-04-08T00:38:20;100453.13;;;8.54;100.00
21956;BME280;11142;49.930;8.606;2023-04-08T00:40:48;100454.56;;;8.42;100.00
21956;BME280;11142;49.930;8.606;2023-04-08T00:43:16;100449.25;;;8.63;100.00
21956;BME280;11142;49.930;8.606;2023-04-08T00:45:46;100453.50;;;8.64;100.00
21956;BME280;11142;49.930;8.606;2023-04-08T00:48:15;100457.47;;;8.71;100.00
21956;BME280;11142;49.930;8.606;2023-04-08T00:50:43;100457.31;;;8.91;100.00
21956;BME280;11142;49.930;8.606;2023-04-08T00:53:14;100461.03;;;8.85;100.00
21956;BME280;11142;49.930;8.606;2023-04-08T00:55:44;100470.97;;;9.10;100.00
21956;BME280;11142;49.930;8.606;2023-04-08T00:58:12;100473.75;;;8.90;100.00
21956;BME280;11142;49.930;8.606;2023-04-08T01:00:41;100472.91;;;8.89;100.00
21956;BME280;11142;49.930;8.606;2023-04-08T01:03:15;100467.06;;;8.86;100.00
21956;BME280;11142;49.930;8.606;2023-04-08T01:05:48;100466.31;;;9.17;100.00
21956;BME280;11142;49.930;8.606;2023-04-08T01:08:24;100468.44;;;9.58;100.00
21956;BME280;11142;49.930;8.606;2023-04-08T01:10:53;100468.94;;;9.32;100.00
21956;BME280;11142;49.930;8.606;2023-04-08T01:13:24;100468.63;;;9.23;100.00
21956;BME280;11142;49.930;8.606;2023-04-08T01:15:55;100469.09;;;8.79;100.00
21956;BME280;11142;49.930;8.606;2023-04-08T01:18:24;100469.34;;;8.92;100.00
21956;BME280;11142;49.930;8.606;2023-04-08T01:20:54;100470.41;;;8.71;100.00
21956;BME280;11142;49.930;8.606;2023-04-08T01:23:28;100469.94;;;8.80;100.00
21956;BME280;11142;49.930;8.606;2023-04-08T01:26:01;100467.47;;;9.11;100.00
21956;BME280;11142;49.930;8.606;2023-04-08T01:28:29;100468.50;;;8.74;100.00
21956;BME280;11142;49.930;8.606;2023-04-08T01:30:58;100462.16;;;8.28;100.00
21956;BME280;11142;49.930;8.606;2023-04-08T01:33:27;100456.81;;;8.31;100.00
21956;BME280;11142;49.930;8.606;2023-04-08T01:35:57;100458.16;;;8.21;100.00
21956;BME280;11142;49.930;8.606;2023-04-08T01:38:29;100447.94;;;8.01;100.00
21956;BME280;11142;49.930;8.606;2023-04-08T01:40:58;100450.81;;;7.95;100.00
21956;BME280;11142;49.930;8.606;2023-04-08T01:43:29;100451.41;;;8.00;100.00
21956;BME280;11142;49.930;8.606;2023-04-08T01:45:59;100446.38;;;7.97;100.00
21956;BME280;11142;49.930;8.606;2023-04-08T01:48:28;100440.63;;;8.09;100.00
21956;BME280;11142;49.930;8.606;2023-04-08T01:50:58;100445.50;;;8.15;100.00
21956;BME280;11142;49.930;8.606;2023-04-08T01:53:27;100442.09;;;8.33;100.00
21956;BME280;11142;49.930;8.606;2023-04-08T01:55:56;100452.75;;;8.62;100.00
21956;BME280;11142;49.930;8.606;2023-04-08T01:58:25;100459.75;;;8.42;100.00
21956;BME280;11142;49.930;8.606;2023-04-08T02:00:57;100455.25;;;8.63;100.00
21956;BME280;11142;49.930;8.606;2023-04-08T02:03:26;100460.97;;;8.70;100.00
21956;BME280;11142;49.930;8.606;2023-04-08T02:05:56;100468.56;;;8.73;100.00
21956;BME280;11142;49.930;8.606;2023-04-08T02:08:25;100466.91;;;8.89;100.00
21956;BME280;11142;49.930;8.606;2023-04-08T02:10:53;100469.94;;;8.80;100.00
21956;BME280;11142;49.930;8.606;2023-04-08T02:13:21;100468.44;;;8.59;100.00
21956;BME280;11142;49.930;8.606;2023-04-08T02:15:50;100462.09;;;8.11;100.00
21956;BME280;11142;49.930;8.606;2023-04-08T02:18:23;100454.22;;;7.95;100.00
21956;BME280;11142;49.930;8.606;2023-04-08T02:20:52;100462.03;;;7.94;100.00
21956;BME280;11142;49.930;8.606;2023-04-08T02:23:26;100459.81;;;8.05;100.00
21956;BME280;11142;49.930;8.606;2023-04-08T02:25:56;100457.78;;;8.12;100.00
21956;BME280;11142;49.930;8.606;2023-04-08T02:28:26;100462.28;;;7.89;100.00
21956;BME280;11142;49.930;8.606;2023-04-08T02:30:55;100456.41;;;7.67;100.00
21956;BME280;11142;49.930;8.606;2023-04-08T02:33:27;100451.72;;;7.57;100.00
21956;BME280;11142;49.930;8.606;2023-04-08T02:35:56;100459.03;;;7.47;100.00
21956;BME280;11142;49.930;8.606;2023-04-08T02:38:25;100449.19;;;7.36;100.00
21956;BME280;11142;49.930;8.606;2023-04-08T02:40:56;100458.09;;;7.29;100.00
21956;BME280;11142;49.930;8.606;2023-04-08T02:43:24;100451.69;;;7.19;100.00
21956;BME280;11142;49.930;8.606;2023-04-08T02:45:58;100446.00;;;7.11;100.00
21956;BME280;11142;49.930;8.606;2023-04-08T02:48:31;100456.59;;;7.25;100.00
21956;BME280;11142;49.930;8.606;2023-04-08T02:50:59;100452.44;;;7.60;100.00
21956;BME280;11142;49.930;8.606;2023-04-08T02:53:27;100460.59;;;7.70;100.00
21956;BME280;11142;49.930;8.606;2023-04-08T02:55:56;100463.03;;;7.73;100.00
21956;BME280;11142;49.930;8.606;2023-04-08T02:58:24;100467.34;;;7.72;100.00
21956;BME280;11142;49.930;8.606;2023-04-08T03:00:52;100470.00;;;7.71;100.00
21956;BME280;11142;49.930;8.606;2023-04-08T03:03:22;100467.97;;;7.59;100.00
21956;BME280;11142;49.930;8.606;2023-04-08T03:05:55;100471.38;;;7.40;100.00
21956;BME280;11142;49.930;8.606;2023-04-08T03:08:24;100473.09;;;7.21;100.00
21956;BME280;11142;49.930;8.606;2023-04-08T03:10:52;100477.50;;;7.19;100.00
21956;BME280;11142;49.930;8.606;2023-04-08T03:13:20;100478.75;;;7.29;100.00
21956;BME280;11142;49.930;8.606;2023-04-08T03:15:49;100478.00;;;7.27;100.00
21956;BME280;11142;49.930;8.606;2023-04-08T03:18:17;100483.28;;;7.04;100.00
21956;BME280;11142;49.930;8.606;2023-04-08T03:20:46;100472.88;;;6.87;100.00
21956;BME280;11142;49.930;8.606;2023-04-08T03:23:15;100471.75;;;6.92;100.00
21956;BME280;11142;49.930;8.606;2023-04-08T03:25:43;100478.66;;;6.92;100.00
21956;BME280;11142;49.930;8.606;2023-04-08T03:28:12;100472.19;;;6.82;100.00
21956;BME280;11142;49.930;8.606;2023-04-08T03:30:42;100474.22;;;6.75;100.00
21956;BME280;11142;49.930;8.606;2023-04-08T03:33:12;100482.97;;;6.71;100.00
21956;BME280;11142;49.930;8.606;2023-04-08T03:35:41;100483.94;;;6.69;100.00
21956;BME280;11142;49.930;8.606;2023-04-08T03:38:09;100489.28;;;6.64;100.00
21956;BME280;11142;49.930;8.606;2023-04-08T03:40:39;100487.00;;;6.57;100.00
21956;BME280;11142;49.930;8.606;2023-04-08T03:43:07;100485.94;;;6.62;100.00
21956;BME280;11142;49.930;8.606;2023-04-08T03:45:37;100482.81;;;6.54;100.00
21956;BME280;11142;49.930;8.606;2023-04-08T03:48:06;100491.94;;;6.41;100.00
21956;BME280;11142;49.930;8.606;2023-04-08T03:50:35;100495.69;;;6.34;100.00
21956;BME280;11142;49.930;8.606;2023-04-08T03:53:03;100486.50;;;6.27;100.00
21956;BME280;11142;49.930;8.606;2023-04-08T03:55:33;100484.69;;;6.29;100.00
21956;BME280;11142;49.930;8.606;2023-04-08T03:58:04;100489.69;;;6.33;100.00
21956;BME280;11142;49.930;8.606;2023-04-08T04:00:33;100490.56;;;6.32;100.00
21956;BME280;11142;49.930;8.606;2023-04-08T04:03:05;100498.06;;;6.38;100.00
21956;BME280;11142;49.930;8.606;2023-04-08T04:05:35;100498.19;;;6.35;100.00
21956;BME280;11142;49.930;8.606;2023-04-08T04:08:04;100492.56;;;6.26;100.00
21956;BME280;11142;49.930;8.606;2023-04-08T04:10:32;100490.94;;;6.23;100.00
21956;BME280;11142;49.930;8.606;2023-04-08T04:13:06;100494.34;;;6.02;100.00
21956;BME280;11142;49.930;8.606;2023-04-08T04:15:36;100491.44;;;5.88;100.00
21956;BME280;11142;49.930;8.606;2023-04-08T04:18:06;100497.03;;;5.76;100.00
21956;BME280;11142;49.930;8.606;2023-04-08T04:20:38;100492.00;;;5.73;100.00
21956;BME280;11142;49.930;8.606;2023-04-08T04:23:12;100494.63;;;5.71;100.00
21956;BME280;11142;49.930;8.606;2023-04-08T04:25:41;100500.56;;;5.73;100.00
21956;BME280;11142;49.930;8.606;2023-04-08T04:28:11;100501.59;;;5.93;100.00
21956;BME280;11142;49.930;8.606;2023-04-08T04:30:40;100505.81;;;5.94;100.00
21956;BME280;11142;49.930;8.606;2023-04-08T04:33:09;100507.34;;;5.99;100.00
21956;BME280;11142;49.930;8.606;2023-04-08T04:35:38;100512.81;;;5.90;100.00
21956;BME280;11142;49.930;8.606;2023-04-08T04:38:07;100504.31;;;5.42;100.00
21956;BME280;11142;49.930;8.606;2023-04-08T04:40:39;100511.75;;;5.24;100.00
21956;BME280;11142;49.930;8.606;2023-04-08T04:43:08;100516.03;;;5.25;100.00
21956;BME280;11142;49.930;8.606;2023-04-08T04:45:38;100512.94;;;5.16;100.00
21956;BME280;11142;49.930;8.606;2023-04-08T04:48:07;100507.19;;;5.08;100.00
21956;BME280;11142;49.930;8.606;2023-04-08T04:50:36;100509.50;;;4.91;100.00
21956;BME280;11142;49.930;8.606;2023-04-08T04:53:04;100504.69;;;4.55;100.00
21956;BME280;11142;49.930;8.606;2023-04-08T04:55:33;100505.94;;;4.44;100.00
21956;BME280;11142;49.930;8.606;2023-04-08T04:58:04;100508.44;;;4.45;100.00
21956;BME280;11142;49.930;8.606;2023-04-08T05:00:33;100504.56;;;4.32;100.00
21956;BME280;11142;49.930;8.606;2023-04-08T05:03:03;100506.56;;;4.22;100.00
21956;BME280;11142;49.930;8.606;2023-04-08T05:05:32;100497.00;;;4.27;100.00
21956;BME280;11142;49.930;8.606;2023-04-08T05:08:03;100505.28;;;4.37;100.00
21956;BME280;11142;49.930;8.606;2023-04-08T05:10:35;100496.28;;;4.50;100.00
21956;BME280;11142;49.930;8.606;2023-04-08T05:13:03;100501.16;;;4.58;100.00
21956;BME280;11142;49.930;8.606;2023-04-08T05:15:32;100499.28;;;4.37;100.00
21956;BME280;11142;49.930;8.606;2023-04-08T05:18:00;100500.06;;;4.39;100.00
21956;BME280;11142;49.930;8.606;2023-04-08T05:20:30;100504.72;;;4.54;100.00
21956;BME280;11142;49.930;8.606;2023-04-08T05:22:58;100495.81;;;4.64;100.00
21956;BME280;11142;49.930;8.606;2023-04-08T05:25:27;100501.06;;;4.87;100.00
21956;BME280;11142;49.930;8.606;2023-04-08T05:27:56;100499.78;;;4.99;100.00
21956;BME280;11142;49.930;8.606;2023-04-08T05:30:26;100517.06;;;4.95;100.00
21956;BME280;11142;49.930;8.606;2023-04-08T05:33:02;100517.38;;;5.35;100.00
21956;BME280;11142;49.930;8.606;2023-04-08T05:35:32;100525.97;;;5.59;100.00
21956;BME280;11142;49.930;8.606;2023-04-08T05:38:02;100526.06;;;5.56;100.00
21956;BME280;11142;49.930;8.606;2023-04-08T05:40:30;100536.72;;;5.70;100.00
21956;BME280;11142;49.930;8.606;2023-04-08T05:42:59;100547.56;;;5.78;100.00
21956;BME280;11142;49.930;8.606;2023-04-08T05:45:27;100550.16;;;5.78;100.00
21956;BME280;11142;49.930;8.606;2023-04-08T05:47:56;100553.72;;;5.74;100.00
21956;BME280;11142;49.930;8.606;2023-04-08T05:50:26;100554.00;;;5.67;100.00
21956;BME280;11142;49.930;8.606;2023-04-08T05:52:58;100565.34;;;5.61;100.00
21956;BME280;11142;49.930;8.606;2023-04-08T05:55:27;100568.72;;;5.63;100.00
21956;BME280;11142;49.930;8.606;2023-04-08T05:57:55;100568.50;;;5.69;100.00
21956;BME280;11142;49.930;8.606;2023-04-08T06:00:23;100570.94;;;5.74;100.00
21956;BME280;11142;49.930;8.606;2023-04-08T06:02:52;100578.34;;;5.81;100.00
21956;BME280;11142;49.930;8.606;2023-04-08T06:05:20;100577.31;;;5.87;100.00
21956;BME280;11142;49.930;8.606;2023-04-08T06:07:50;100567.38;;;6.01;100.00
21956;BME280;11142;49.930;8.606;2023-04-08T06:10:20;100576.31;;;6.14;100.00
21956;BME280;11142;49.930;8.606;2023-04-08T06:12:48;100581.53;;;6.34;100.00
21956;BME280;11142;49.930;8.606;2023-04-08T06:15:17;100579.22;;;6.50;100.00
21956;BME280;11142;49.930;8.606;2023-04-08T06:17:47;100582.53;;;6.75;100.00
21956;BME280;11142;49.930;8.606;2023-04-08T06:20:17;100590.97;;;7.01;100.00
21956;BME280;11142;49.930;8.606;2023-04-08T06:22:45;100590.78;;;7.25;100.00
21956;BME280;11142;49.930;8.606;2023-04-08T06:25:14;100600.97;;;7.48;100.00
21956;BME280;11142;49.930;8.606;2023-04-08T06:27:46;100605.94;;;7.53;100.00
21956;BME280;11142;49.930;8.606;2023-04-08T06:30:15;100600.53;;;7.59;100.00
21956;BME280;11142;49.930;8.606;2023-04-08T06:32:46;100608.44;;;7.75;100.00
21956;BME280;11142;49.930;8.606;2023-04-08T06:35:16;100604.97;;;7.76;100.00
21956;BME280;11142;49.930;8.606;2023-04-08T06:37:44;100605.78;;;8.15;100.00
21956;BME280;11142;49.930;8.606;2023-04-08T06:40:12;100604.84;;;8.55;100.00
21956;BME280;11142;49.930;8.606;2023-04-08T06:42:41;100612.47;;;8.94;100.00
21956;BME280;11142;49.930;8.606;2023-04-08T06:45:30;100621.56;;;8.84;100.00
21956;BME280;11142;49.930;8.606;2023-04-08T06:47:58;100620.53;;;8.88;100.00
21956;BME280;11142;49.930;8.606;2023-04-08T06:50:27;100617.34;;;9.00;100.00
21956;BME280;11142;49.930;8.606;2023-04-08T06:52:56;100627.88;;;8.60;100.00
21956;BME280;11142;49.930;8.606;2023-04-08T06:55:25;100629.84;;;8.54;100.00
21956;BME280;11142;49.930;8.606;2023-04-08T06:57:54;100620.06;;;8.97;100.00
21956;BME280;11142;49.930;8.606;2023-04-08T07:00:24;100629.66;;;9.29;100.00
21956;BME280;11142;49.930;8.606;2023-04-08T07:02:55;100634.47;;;9.71;100.00
21956;BME280;11142;49.930;8.606;2023-04-08T07:05:23;100642.09;;;10.07;100.00
21956;BME280;11142;49.930;8.606;2023-04-08T07:07:51;100643.28;;;10.81;100.00
21956;BME280;11142;49.930;8.606;2023-04-08T07:10:19;100648.84;;;11.50;100.00
21956;BME280;11142;49.930;8.606;2023-04-08T07:12:48;100654.59;;;11.85;100.00
21956;BME280;11142;49.930;8.606;2023-04-08T07:15:16;100664.34;;;11.96;100.00
21956;BME280;11142;49.930;8.606;2023-04-08T07:17:45;100674.25;;;11.89;100.00
21956;BME280;11142;49.930;8.606;2023-04-08T07:20:20;100671.03;;;12.00;100.00
21956;BME280;11142;49.930;8.606;2023-04-08T07:22:49;100682.50;;;11.52;100.00
21956;BME280;11142;49.930;8.606;2023-04-08T07:25:17;100675.00;;;11.47;100.00
21956;BME280;11142;49.930;8.606;2023-04-08T07:27:46;100680.72;;;11.23;100.00
21956;BME280;11142;49.930;8.606;2023-04-08T07:30:14;100681.25;;;10.35;100.00
21956;BME280;11142;49.930;8.606;2023-04-08T07:32:43;100687.81;;;10.89;100.00
21956;BME280;11142;49.930;8.606;2023-04-08T07:35:12;100692.31;;;10.39;100.00
21956;BME280;11142;49.930;8.606;2023-04-08T07:37:42;100690.28;;;10.28;100.00
21956;BME280;11142;49.930;8.606;2023-04-08T07:40:15;100684.66;;;10.69;100.00
21956;BME280;11142;49.930;8.606;2023-04-08T07:42:43;100690.13;;;11.70;100.00
21956;BME280;11142;49.930;8.606;2023-04-08T07:45:12;100692.69;;;12.29;96.69
21956;BME280;11142;49.930;8.606;2023-04-08T07:47:44;100698.53;;;10.83;100.00
21956;BME280;11142;49.930;8.606;2023-04-08T07:50:13;100696.16;;;11.10;100.00
21956;BME280;11142;49.930;8.606;2023-04-08T07:52:43;100697.22;;;11.67;97.78
21956;BME280;11142;49.930;8.606;2023-04-08T07:55:11;100699.66;;;12.42;92.42
21956;BME280;11142;49.930;8.606;2023-04-08T07:57:39;100703.66;;;12.34;91.50
21956;BME280;11142;49.930;8.606;2023-04-08T08:00:09;100710.56;;;12.20;97.73
21956;BME280;11142;49.930;8.606;2023-04-08T08:02:40;100706.56;;;12.98;86.39
21956;BME280;11142;49.930;8.606;2023-04-08T08:05:09;100714.09;;;13.29;84.30
21956;BME280;11142;49.930;8.606;2023-04-08T08:07:38;100714.69;;;12.65;89.75
21956;BME280;11142;49.930;8.606;2023-04-08T08:10:08;100716.22;;;12.27;95.10
21956;BME280;11142;49.930;8.606;2023-04-08T08:12:38;100717.88;;;11.54;100.00
21956;BME280;11142;49.930;8.606;2023-04-08T08:15:06;100722.31;;;11.38;100.00
21956;BME280;11142;49.930;8.606;2023-04-08T08:17:36;100722.63;;;11.48;100.00
21956;BME280;11142;49.930;8.606;2023-04-08T08:20:05;100726.44;;;12.44;92.95
21956;BME280;11142;49.930;8.606;2023-04-08T08:22:33;100726.16;;;12.20;89.53
21956;BME280;11142;49.930;8.606;2023-04-08T08:25:17;100726.50;;;11.25;97.16
21956;BME280;11142;49.930;8.606;2023-04-08T08:27:51;100729.16;;;10.45;100.00
21956;BME280;11142;49.930;8.606;2023-04-08T08:30:21;100736.34;;;11.50;100.00
21956;BME280;11142;49.930;8.606;2023-04-08T08:32:50;100735.41;;;11.96;100.00
21956;BME280;11142;49.930;8.606;2023-04-08T08:35:26;100737.56;;;12.89;92.36
21956;BME280;11142;49.930;8.606;2023-04-08T08:37:55;100744.00;;;12.69;92.48
21956;BME280;11142;49.930;8.606;2023-04-08T08:40:24;100741.50;;;13.49;90.51
21956;BME280;11142;49.930;8.606;2023-04-08T08:42:54;100739.78;;;13.62;79.86
21956;BME280;11142;49.930;8.606;2023-04-08T08:45:25;100739.38;;;13.81;78.27
21956;BME280;11142;49.930;8.606;2023-04-08T08:47:54;100751.44;;;13.57;86.77
21956;BME280;11142;49.930;8.606;2023-04-08T08:50:23;100745.28;;;14.10;78.97
21956;BME280;11142;49.930;8.606;2023-04-08T08:52:51;100747.06;;;12.19;92.61
21956;BME280;11142;49.930;8.606;2023-04-08T08:55:21;100749.44;;;11.94;95.68
21956;BME280;11142;49.930;8.606;2023-04-08T08:58:13;100747.53;;;11.36;100.00
21956;BME280;11142;49.930;8.606;2023-04-08T09:00:44;100754.63;;;11.94;98.38
21956;BME280;11142;49.930;8.606;2023-04-08T09:03:14;100753.34;;;11.71;100.00
21956;BME280;11142;49.930;8.606;2023-04-08T09:05:47;100754.25;;;11.86;97.06
21956;BME280;11142;49.930;8.606;2023-04-08T09:08:23;100753.72;;;11.95;97.32
21956;BME280;11142;49.930;8.606;2023-04-08T09:10:52;100759.88;;;12.08;93.26
21956;BME280;11142;49.930;8.606;2023-04-08T09:13:23;100756.44;;;11.78;95.23
21956;BME280;11142;49.930;8.606;2023-04-08T09:16:06;100762.25;;;13.24;83.72
21956;BME280;11142;49.930;8.606;2023-04-08T09:18:37;100762.88;;;13.81;78.19
21956;BME280;11142;49.930;8.606;2023-04-08T09:21:05;100769.06;;;14.18;74.98
21956;BME280;11142;49.930;8.606;2023-04-08T09:23:38;100762.28;;;14.03;77.75
21956;BME280;11142;49.930;8.606;2023-04-08T09:26:07;100767.88;;;13.84;74.66
21956;BME280;11142;49.930;8.606;2023-04-08T09:28:41;100768.53;;;11.63;81.05
21956;BME280;11142;49.930;8.606;2023-04-08T09:31:17;100771.66;;;10.91;100.00
21956;BME280;11142;49.930;8.606;2023-04-08T09:33:46;100775.72;;;11.12;98.21
21956;BME280;11142;49.930;8.606;2023-04-08T09:36:18;100774.50;;;11.49;89.88
21956;BME280;11142;49.930;8.606;2023-04-08T09:38:49;100775.75;;;10.80;96.88
21956;BME280;11142;49.930;8.606;2023-04-08T09:41:19;100772.22;;;11.75;89.63
21956;BME280;11142;49.930;8.606;2023-04-08T09:43:52;100770.97;;;11.96;86.17
21956;BME280;11142;49.930;8.606;2023-04-08T09:46:24;100772.84;;;11.94;83.24
21956;BME280;11142;49.930;8.606;2023-04-08T09:48:57;100772.84;;;11.17;77.46
21956;BME280;11142;49.930;8.606;2023-04-08T09:51:31;100768.66;;;10.99;77.05
21956;BME280;11142;49.930;8.606;2023-04-08T09:54:02;100766.00;;;11.77;74.19
21956;BME280;11142;49.930;8.606;2023-04-08T09:56:37;100773.56;;;11.82;74.72
21956;BME280;11142;49.930;8.606;2023-04-08T09:59:10;100766.03;;;11.46;70.47
21956;BME280;11142;49.930;8.606;2023-04-08T10:01:43;100761.66;;;11.62;70.30
21956;BME280;11142;49.930;8.606;2023-04-08T10:04:13;100770.28;;;11.78;63.43
21956;BME280;11142;49.930;8.606;2023-04-08T10:06:44;100763.03;;;11.83;63.34
21956;BME280;11142;49.930;8.606;2023-04-08T10:09:13;100771.50;;;11.87;66.03
21956;BME280;11142;49.930;8.606;2023-04-08T10:11:42;100772.47;;;12.00;59.66
21956;BME280;11142;49.930;8.606;2023-04-08T10:14:14;100769.22;;;12.54;60.20
21956;BME280;11142;49.930;8.606;2023-04-08T10:16:43;100767.88;;;12.75;56.35
21956;BME280;11142;49.930;8.606;2023-04-08T10:22:01;100770.34;;;12.64;60.81
21956;BME280;11142;49.930;8.606;2023-04-08T10:24:32;100763.50;;;13.84;54.91
21956;BME280;11142;49.930;8.606;2023-04-08T10:27:01;100769.91;;;12.99;52.94
21956;BME280;11142;49.930;8.606;2023-04-08T10:29:37;100770.72;;;13.54;56.41
21956;BME280;11142;49.930;8.606;2023-04-08T10:32:13;100769.69;;;13.30;53.42
21956;BME280;11142;49.930;8.606;2023-04-08T10:34:55;100756.22;;;14.15;50.94
21956;BME280;11142;49.930;8.606;2023-04-08T10:37:23;100762.53;;;13.60;50.82
21956;BME280;11142;49.930;8.606;2023-04-08T10:39:54;100765.97;;;14.25;51.86
21956;BME280;11142;49.930;8.606;2023-04-08T10:42:26;100764.47;;;12.61;56.76
21956;BME280;11142;49.930;8.606;2023-04-08T10:45:00;100765.66;;;12.69;59.30
21956;BME280;11142;49.930;8.606;2023-04-08T10:47:29;100765.75;;;12.25;60.45
21956;BME280;11142;49.930;8.606;2023-04-08T10:49:58;100772.00;;;12.51;59.03
21956;BME280;11142;49.930;8.606;2023-04-08T10:52:26;100775.50;;;12.08;65.38
21956;BME280;11142;49.930;8.606;2023-04-08T10:54:55;100770.88;;;12.27;67.93
21956;BME280;11142;49.930;8.606;2023-04-08T10:57:23;100759.41;;;13.80;61.63
21956;BME280;11142;49.930;8.606;2023-04-08T10:59:51;100757.31;;;13.60;60.76
21956;BME280;11142;49.930;8.606;2023-04-08T11:02:20;100768.38;;;12.68;67.19
21956;BME280;11142;49.930;8.606;2023-04-08T11:04:49;100766.38;;;13.14;67.48
21956;BME280;11142;49.930;8.606;2023-04-08T11:07:19;100754.03;;;13.96;63.81
21956;BME280;11142;49.930;8.606;2023-04-08T11:09:47;100758.97;;;13.35;62.54
21956;BME280;11142;49.930;8.606;2023-04-08T11:12:16;100750.91;;;14.04;64.34
21956;BME280;11142;49.930;8.606;2023-04-08T11:14:45;100759.34;;;14.96;59.26
21956;BME280;11142;49.930;8.606;2023-04-08T11:17:15;100762.31;;;16.32;54.49
21956;BME280;11142;49.930;8.606;2023-04-08T11:19:45;100760.31;;;15.18;56.58
21956;BME280;11142;49.930;8.606;2023-04-08T11:22:13;100755.31;;;15.39;56.47
21956;BME280;11142;49.930;8.606;2023-04-08T11:24:41;100754.59;;;16.75;50.60
21956;BME280;11142;49.930;8.606;2023-04-08T11:27:09;100744.91;;;16.31;52.61
21956;BME280;11142;49.930;8.606;2023-04-08T11:29:38;100744.44;;;16.26;55.09
21956;BME280;11142;49.930;8.606;2023-04-08T11:32:08;100747.38;;;15.40;56.92
21956;BME280;11142;49.930;8.606;2023-04-08T11:34:37;100749.38;;;15.37;58.31
21956;BME280;11142;49.930;8.606;2023-04-08T11:37:08;100748.94;;;14.20;64.90
21956;BME280;11142;49.930;8.606;2023-04-08T11:39:39;100746.00;;;13.99;64.38
21956;BME280;11142;49.930;8.606;2023-04-08T11:42:14;100740.44;;;13.78;65.19
21956;BME280;11142;49.930;8.606;2023-04-08T11:44:52;100741.38;;;16.76;54.37
21956;BME280;11142;49.930;8.606;2023-04-08T11:47:21;100739.56;;;18.36;46.62
21956;BME280;11142;49.930;8.606;2023-04-08T11:49:49;100746.00;;;17.81;44.58
21956;BME280;11142;49.930;8.606;2023-04-08T11:52:18;100737.59;;;21.42;39.80
21956;BME280;11142;49.930;8.606;2023-04-08T11:54:48;100742.06;;;24.10;33.55
21956;BME280;11142;49.930;8.606;2023-04-08T11:57:26;100747.91;;;18.71;42.93
21956;BME280;11142;49.930;8.606;2023-04-08T11:59:55;100740.16;;;17.77;45.51
21956;BME280;11142;49.930;8.606;2023-04-08T12:02:23;100739.19;;;16.15;53.65
21956;BME280;11142;49.930;8.606;2023-04-08T12:04:54;100736.69;;;16.13;55.02
21956;BME280;11142;49.930;8.606;2023-04-08T12:07:25;100728.41;;;17.29;52.24
21956;BME280;11142;49.930;8.606;2023-04-08T12:09:56;100737.22;;;15.36;57.75
21956;BME280;11142;49.930;8.606;2023-04-08T12:12:24;100737.88;;;16.09;56.84
21956;BME280;11142;49.930;8.606;2023-04-08T12:14:54;100741.19;;;13.41;70.04
21956;BME280;11142;49.930;8.606;2023-04-08T12:17:23;100739.63;;;14.66;66.49
21956;BME280;11142;49.930;8.606;2023-04-08T12:19:52;100732.91;;;16.84;54.74
21956;BME280;11142;49.930;8.606;2023-04-08T12:22:20;100733.75;;;17.70;53.35
21956;BME280;11142;49.930;8.606;2023-04-08T12:24:53;100734.81;;;19.49;43.76
21956;BME280;11142;49.930;8.606;2023-04-08T12:27:24;100734.81;;;19.40;44.44
21956;BME280;11142;49.930;8.606;2023-04-08T12:29:52;100733.34;;;20.59;41.66
21956;BME280;11142;49.930;8.606;2023-04-08T12:32:21;100731.19;;;17.16;48.42
21956;BME280;11142;49.930;8.606;2023-04-08T12:34:51;100732.72;;;15.38;58.11
21956;BME280;11142;49.930;8.606;2023-04-08T12:37:20;100724.59;;;14.32;64.90
21956;BME280;11142;49.930;8.606;2023-04-08T12:39:48;100715.34;;;15.61;61.13
21956;BME280;11142;49.930;8.606;2023-04-08T12:42:18;100720.19;;;19.07;48.07
21956;BME280;11142;49.930;8.606;2023-04-08T12:44:46;100711.94;;;19.50;43.41
21956;BME280;11142;49.930;8.606;2023-04-08T12:47:15;100711.34;;;18.68;45.86
21956;BME280;11142;49.930;8.606;2023-04-08T12:49:43;100714.66;;;21.60;40.04
21956;BME280;11142;49.930;8.606;2023-04-08T12:52:15;100716.38;;;20.34;42.07
21956;BME280;11142;49.930;8.606;2023-04-08T12:54:45;100711.97;;;22.21;37.87
21956;BME280;11142;49.930;8.606;2023-04-08T12:57:14;100711.28;;;21.32;38.89
21956;BME280;11142;49.930;8.606;2023-04-08T12:59:46;100713.88;;;20.70;41.13
21956;BME280;11142;49.930;8.606;2023-04-08T13:02:14;100718.56;;;19.73;41.88
21956;BME280;11142;49.930;8.606;2023-04-08T13:04:44;100724.41;;;18.79;44.24
21956;BME280;11142;49.930;8.606;2023-04-08T13:07:13;100718.09;;;18.31;47.71